ホノルル の空港の天気 - METARとTAF

ホノルル国際空港 ( PHNL / HNL ) - アメリカ ハワイ州ホノルル
飛行場実況気象(Metar)
観測時間11/18 01:53 HST (11/18 11:53 UTC)
風向・風速北北西 2m/s
視程10km以上
天気現象
少しの雲 雲底高度 790m
気温21.7℃
湿度73%
気圧1012.1hPa
METARPHNL 181153Z 33004KT 10SM FEW026 22/17 A2989 RMK AO2 SLP121 T02170167 10239 20217 58012
過去の天気等 Google飛行場航空写真 Wunderground天気予報

過去48時間のMETAR

飛行場予報(TAF)
発表時間: 11/18 01:20 HST (11/18 11:20 UTC)
予報対象時間: 18日2時 HST ~ 19日8時 HST
風向・風速北 3m/s
視程10km以上
少しの雲 雲底高度 760m
全天の4割程度の雲 雲底高度 1,520m
18日10時 HST から
風向・風速北東 4m/s
視程10km以上
全天の4割程度の雲 雲底高度 760m
全天の4割程度の雲 雲底高度 1,520m
18日18時 HST から
風向・風速北北西 4m/s
視程10km以上
天気現象周辺でしゅう雨
全天の4割程度の雲 雲底高度 760m
全天の8割程度の雲 雲底高度 1,370m
PHNL 181120Z 1812/1918 36005KT P6SM FEW025 SCT050
FM182000 04008KT P6SM SCT025 SCT050
FM190400 34008KT P6SM VCSH SCT025 BKN045